sensor_id;sensor_type;location;lat;lon;timestamp;pressure;altitude;pressure_sealevel;temperature;humidity
55014;BME280;40916;51.632;5.552;2023-02-26T00:00:40;1013.8154209401711;;;-1.6460548432440198;0
55014;BME280;40916;51.632;5.552;2023-02-26T00:01:41;1013.8720809699846;;;-1.6304760130742615;0
55014;BME280;40916;51.632;5.552;2023-02-26T00:02:41;1013.793259725383;;;-1.6304760130742615;0
55014;BME280;40916;51.632;5.552;2023-02-26T00:03:41;1013.9251504261823;;;-1.6149002738006786;0
55014;BME280;40916;51.632;5.552;2023-02-26T00:04:41;1013.8800227552483;;;-1.607113562510964;0
55014;BME280;40916;51.632;5.552;2023-02-26T00:05:41;1013.880772982944;;;-1.5837580584866302;0
55014;BME280;40916;51.632;5.552;2023-02-26T00:06:41;1013.912313799445;;;-1.5681915777244981;0
55014;BME280;40916;51.632;5.552;2023-02-26T00:07:41;1013.8692827696772;;;-1.5292888520247523;0
55014;BME280;40916;51.632;5.552;2023-02-26T00:08:41;1013.8936191200013;;;-1.5137331460503916;0
55014;BME280;40916;51.632;5.552;2023-02-26T00:09:41;1013.912951145048;;;-1.5059564456679553;0
55014;BME280;40916;51.632;5.552;2023-02-26T00:10:41;1013.9623602458075;;;-1.490405348645666;0
55014;BME280;40916;51.632;5.552;2023-02-26T00:11:42;1014.001009172333;;;-1.4748573213260379;0
55014;BME280;40916;51.632;5.552;2023-02-26T00:12:42;1013.9028387094627;;;-1.4826309514195053;0
55014;BME280;40916;51.632;5.552;2023-02-26T00:13:42;1013.9607980387211;;;-1.4593123613662016;0
55014;BME280;40916;51.632;5.552;2023-02-26T00:14:42;1013.9349097120897;;;-1.4437704664256827;0
55014;BME280;40916;51.632;5.552;2023-02-26T00:15:42;1013.9484364021499;;;-1.4282316341663872;0
55014;BME280;40916;51.632;5.552;2023-02-26T00:16:42;1013.989796654547;;;-1.3971631483509483;0
55014;BME280;40916;51.632;5.552;2023-02-26T00:17:43;1013.9966285818317;;;-1.3583447271088325;0
55014;BME280;40916;51.632;5.552;2023-02-26T00:18:42;1014.0078641791229;;;-1.335062826281959;0
55014;BME280;40916;51.632;5.552;2023-02-26T00:19:42;1014.0105605707683;;;-1.3195453675238085;0
55014;BME280;40916;51.632;5.552;2023-02-26T00:20:42;1014.0074131810233;;;-1.2962748862783187;0
55014;BME280;40916;51.632;5.552;2023-02-26T00:21:42;1014.0786056329398;;;-1.2575059499526482;0
55014;BME280;40916;51.632;5.552;2023-02-26T00:22:42;1014.1089807007387;;;-1.226504459266149;0
55014;BME280;40916;51.632;5.552;2023-02-26T00:23:43;1014.1116012909102;;;-1.2110082603696313;0
55014;BME280;40916;51.632;5.552;2023-02-26T00:24:42;1013.9776083658793;;;-1.2187559811873534;0
55014;BME280;40916;51.632;5.552;2023-02-26T00:25:43;1014.1181037586546;;;-1.172281005130337;0
55014;BME280;40916;51.632;5.552;2023-02-26T00:26:43;1014.0740600375528;;;-1.1567953938014064;0
55014;BME280;40916;51.632;5.552;2023-02-26T00:27:43;1014.0515219739447;;;-1.1413128023245775;0
55014;BME280;40916;51.632;5.552;2023-02-26T00:28:43;1014.0794143765693;;;-1.1026195204480906;0
55014;BME280;40916;51.632;5.552;2023-02-26T00:29:43;1014.0304619556282;;;-1.094883124095528;0
55014;BME280;40916;51.632;5.552;2023-02-26T00:30:43;1014.0749551843508;;;-1.0639450625733957;0
55014;BME280;40916;51.632;5.552;2023-02-26T00:31:43;1014.1683895339946;;;-1.0407494085298268;0
55014;BME280;40916;51.632;5.552;2023-02-26T00:32:43;1014.1518272569525;;;-1.0098323779863705;0
55014;BME280;40916;51.632;5.552;2023-02-26T00:33:43;1014.1399405025817;;;-0.9943783611042072;0
55014;BME280;40916;51.632;5.552;2023-02-26T00:34:44;1014.1914804833121;;;-0.9634793127672232;0
55014;BME280;40916;51.632;5.552;2023-02-26T00:35:44;1014.2190303307522;;;-0.9480342767785501;0
55014;BME280;40916;51.632;5.552;2023-02-26T00:36:44;1014.2178641680965;;;-0.9325922298910037;0
55014;BME280;40916;51.632;5.552;2023-02-26T00:37:51;1014.2370129930545;;;-0.9248723266534356;0
55014;BME280;40916;51.632;5.552;2023-02-26T00:38:44;1014.2178879475387;;;-0.9094347591785237;0
55014;BME280;40916;51.632;5.552;2023-02-26T00:39:46;1014.3506683337828;;;-0.8862840012344186;0
55014;BME280;40916;51.632;5.552;2023-02-26T00:40:45;1014.365023141191;;;-0.8862840012344186;0
55014;BME280;40916;51.632;5.552;2023-02-26T00:41:44;1014.1987444186402;;;-0.9171531698433739;0
55014;BME280;40916;51.632;5.552;2023-02-26T00:42:44;1014.3064094848629;;;-0.8940001751559841;0
55014;BME280;40916;51.632;5.552;2023-02-26T00:43:44;1014.3375094857125;;;-0.9017170943767283;0
55014;BME280;40916;51.632;5.552;2023-02-26T00:44:44;1014.3578400710926;;;-0.9094347591785237;0
55014;BME280;40916;51.632;5.552;2023-02-26T00:45:46;1014.4009022976605;;;-0.9094347591785237;0
55014;BME280;40916;51.632;5.552;2023-02-26T00:46:47;1014.4128443332727;;;-0.9248723266534356;0
55014;BME280;40916;51.632;5.552;2023-02-26T00:47:47;1014.4235583492083;;;-0.9480342767785501;0
55014;BME280;40916;51.632;5.552;2023-02-26T00:48:46;1014.3780610166586;;;-0.9634793127672232;0
55014;BME280;40916;51.632;5.552;2023-02-26T00:49:48;1014.4091297344266;;;-0.9712029523817343;0
55014;BME280;40916;51.632;5.552;2023-02-26T00:50:46;1014.337271736857;;;-0.9943783611042072;0
55014;BME280;40916;51.632;5.552;2023-02-26T00:51:47;1014.3037476626864;;;-1.002104994916138;0
55014;BME280;40916;51.632;5.552;2023-02-26T00:52:48;1014.3491517698898;;;-1.0098323779863705;0
55014;BME280;40916;51.632;5.552;2023-02-26T00:53:46;1014.2653957758575;;;-1.0175605105987735;0
55014;BME280;40916;51.632;5.552;2023-02-26T00:54:45;1014.4293200808971;;;-1.002104994916138;0
55014;BME280;40916;51.632;5.552;2023-02-26T00:55:45;1014.3789577052773;;;-1.025289393037358;0
55014;BME280;40916;51.632;5.552;2023-02-26T00:56:45;1014.3393373502577;;;-1.0484805421524506;0
55014;BME280;40916;51.632;5.552;2023-02-26T00:57:46;1014.4157476437675;;;-1.0639450625733957;0
55014;BME280;40916;51.632;5.552;2023-02-26T00:58:46;1014.4083703573239;;;-1.0871474804171548;0
55014;BME280;40916;51.632;5.552;2023-02-26T00:59:46;1014.4260768330138;;;-1.110356669760435;0
55014;BME280;40916;51.632;5.552;2023-02-26T01:00:46;1014.4737340220187;;;-1.125833228407572;0
55014;BME280;40916;51.632;5.552;2023-02-26T01:01:46;1014.4375937996426;;;-1.149053720724801;0
55014;BME280;40916;51.632;5.552;2023-02-26T01:02:46;1014.4565261602036;;;-1.1645378218410016;0
55014;BME280;40916;51.632;5.552;2023-02-26T01:03:46;1014.4744586511315;;;-1.1645378218410016;0
55014;BME280;40916;51.632;5.552;2023-02-26T01:04:46;1014.4897913673462;;;-1.1800249439563117;0
55014;BME280;40916;51.632;5.552;2023-02-26T01:05:46;1014.5569481458792;;;-1.1645378218410016;0
55014;BME280;40916;51.632;5.552;2023-02-26T01:06:47;1014.5758644270815;;;-1.1800249439563117;0
55014;BME280;40916;51.632;5.552;2023-02-26T01:07:50;1014.5481467170042;;;-1.1955150893664914;0
55014;BME280;40916;51.632;5.552;2023-02-26T01:08:49;1014.4764216371151;;;-1.1955150893664914;0
55014;BME280;40916;51.632;5.552;2023-02-26T01:09:47;1014.4486969276388;;;-1.2110082603696313;0
55014;BME280;40916;51.632;5.552;2023-02-26T01:10:47;1014.5699943091707;;;-1.172281005130337;0
55014;BME280;40916;51.632;5.552;2023-02-26T01:11:47;1014.5100051714634;;;-1.1877696386059675;0
55014;BME280;40916;51.632;5.552;2023-02-26T01:12:47;1014.5103236414842;;;-1.1645378218410016;0
55014;BME280;40916;51.632;5.552;2023-02-26T01:13:47;1014.4923911448918;;;-1.1645378218410016;0
55014;BME280;40916;51.632;5.552;2023-02-26T01:14:47;1014.5259658871583;;;-1.1567953938014064;0
55014;BME280;40916;51.632;5.552;2023-02-26T01:15:48;1014.501143892001;;;-1.1335726383142735;0
55014;BME280;40916;51.632;5.552;2023-02-26T01:16:49;1014.5180577253576;;;-1.1180945723183022;0
55014;BME280;40916;51.632;5.552;2023-02-26T01:17:48;1014.5851792688221;;;-1.1026195204480906;0
55014;BME280;40916;51.632;5.552;2023-02-26T01:18:49;1014.5877260073868;;;-1.0871474804171548;0
55014;BME280;40916;51.632;5.552;2023-02-26T01:19:48;1014.5805517759446;;;-1.0871474804171548;0
55014;BME280;40916;51.632;5.552;2023-02-26T01:20:50;1014.6117850273597;;;-1.07167844994132;0
55014;BME280;40916;51.632;5.552;2023-02-26T01:21:48;1014.5782336629749;;;-1.079412589127518;0
55014;BME280;40916;51.632;5.552;2023-02-26T01:22:50;1014.5026784588656;;;-1.1026195204480906;0
55014;BME280;40916;51.632;5.552;2023-02-26T01:23:49;1014.4916680504765;;;-1.125833228407572;0
55014;BME280;40916;51.632;5.552;2023-02-26T01:24:49;1014.5815922758384;;;-1.1026195204480906;0
55014;BME280;40916;51.632;5.552;2023-02-26T01:25:49;1014.5503395436069;;;-1.1180945723183022;0
55014;BME280;40916;51.632;5.552;2023-02-26T01:26:48;1014.4903836578328;;;-1.1335726383142735;0
55014;BME280;40916;51.632;5.552;2023-02-26T01:27:48;1014.4939704024422;;;-1.1335726383142735;0
55014;BME280;40916;51.632;5.552;2023-02-26T01:28:48;1014.4903836578328;;;-1.1335726383142735;0
55014;BME280;40916;51.632;5.552;2023-02-26T01:29:49;1014.4949797358371;;;-1.149053720724801;0
55014;BME280;40916;51.632;5.552;2023-02-26T01:30:49;1014.512912846846;;;-1.149053720724801;0
55014;BME280;40916;51.632;5.552;2023-02-26T01:31:49;1014.4744586511315;;;-1.1645378218410016;0
55014;BME280;40916;51.632;5.552;2023-02-26T01:32:50;1014.4780451496571;;;-1.1645378218410016;0
55014;BME280;40916;51.632;5.552;2023-02-26T01:33:50;1014.5461886431657;;;-1.1645378218410016;0
55014;BME280;40916;51.632;5.552;2023-02-26T01:34:51;1014.5308459606871;;;-1.149053720724801;0
55014;BME280;40916;51.632;5.552;2023-02-26T01:35:50;1014.5126112824313;;;-1.172281005130337;0
55014;BME280;40916;51.632;5.552;2023-02-26T01:36:51;1014.5882319440125;;;-1.149053720724801;0
55014;BME280;40916;51.632;5.552;2023-02-26T01:37:50;1014.5305434751722;;;-1.172281005130337;0
55014;BME280;40916;51.632;5.552;2023-02-26T01:38:51;1014.4803333426349;;;-1.172281005130337;0
55014;BME280;40916;51.632;5.552;2023-02-26T01:39:59;1014.5497751439569;;;-1.1645378218410016;0
55014;BME280;40916;51.632;5.552;2023-02-26T01:41:08;1014.5566272805597;;;-1.1877696386059675;0
55014;BME280;40916;51.632;5.552;2023-02-26T01:41:50;1014.6140083641891;;;-1.1877696386059675;0
55014;BME280;40916;51.632;5.552;2023-02-26T01:42:50;1014.5706253831316;;;-1.2110082603696313;0
55014;BME280;40916;51.632;5.552;2023-02-26T01:43:52;1014.6172451213046;;;-1.2110082603696313;0
55014;BME280;40916;51.632;5.552;2023-02-26T01:44:54;1014.6531064713862;;;-1.2110082603696313;0
55014;BME280;40916;51.632;5.552;2023-02-26T01:45:53;1014.6221460783446;;;-1.2032612965252198;0
55014;BME280;40916;51.632;5.552;2023-02-26T01:46:53;1014.713114572696;;;-1.1955150893664914;0
55014;BME280;40916;51.632;5.552;2023-02-26T01:47:52;1014.6768908147882;;;-1.2187559811873534;0
55014;BME280;40916;51.632;5.552;2023-02-26T01:48:51;1014.746346034606;;;-1.2110082603696313;0
55014;BME280;40916;51.632;5.552;2023-02-26T01:49:50;1014.7544617253922;;;-1.226504459266149;0
55014;BME280;40916;51.632;5.552;2023-02-26T01:50:50;1014.6415695737043;;;-1.2575059499526482;0
55014;BME280;40916;51.632;5.552;2023-02-26T01:51:51;1014.7648199311343;;;-1.2497544399489087;0
55014;BME280;40916;51.632;5.552;2023-02-26T01:53:09;1014.7634856992705;;;-1.2575059499526482;0
55014;BME280;40916;51.632;5.552;2023-02-26T01:53:51;1014.7608088118301;;;-1.2730112463551357;0
55014;BME280;40916;51.632;5.552;2023-02-26T01:54:51;1014.7657343686585;;;-1.2652582186585057;0
55014;BME280;40916;51.632;5.552;2023-02-26T01:55:51;1014.7294364967767;;;-1.2885195798760307;0
55014;BME280;40916;51.632;5.552;2023-02-26T01:56:52;1014.7724627846941;;;-1.2885195798760307;0
55014;BME280;40916;51.632;5.552;2023-02-26T01:57:52;1014.7746997230076;;;-1.2962748862783187;0
55014;BME280;40916;51.632;5.552;2023-02-26T01:58:51;1014.8190746150041;;;-1.2885195798760307;0
55014;BME280;40916;51.632;5.552;2023-02-26T01:59:51;1014.8446199922943;;;-1.2652582186585057;0
55014;BME280;40916;51.632;5.552;2023-02-26T02:00:51;1014.9010816226717;;;-1.2497544399489087;0
55014;BME280;40916;51.632;5.552;2023-02-26T02:01:52;1014.8441121579252;;;-1.226504459266149;0
55014;BME280;40916;51.632;5.552;2023-02-26T02:02:51;1014.8252411094415;;;-1.2110082603696313;0
55014;BME280;40916;51.632;5.552;2023-02-26T02:03:51;1014.8458062827253;;;-1.1955150893664914;0
55014;BME280;40916;51.632;5.552;2023-02-26T02:04:52;1014.9397217247484;;;-1.149053720724801;0
55014;BME280;40916;51.632;5.552;2023-02-26T02:05:53;1014.8813394871642;;;-1.1335726383142735;0
55014;BME280;40916;51.632;5.552;2023-02-26T02:06:52;1014.8203646361883;;;-1.1335726383142735;0
55014;BME280;40916;51.632;5.552;2023-02-26T02:07:52;1014.8362690592811;;;-1.1026195204480906;0
55014;BME280;40916;51.632;5.552;2023-02-26T02:08:52;1014.9392639033534;;;-1.0871474804171548;0
55014;BME280;40916;51.632;5.552;2023-02-26T02:09:52;1014.9825415784009;;;-1.0639450625733957;0
55014;BME280;40916;51.632;5.552;2023-02-26T02:10:52;1014.9584750492697;;;-1.079412589127518;0
55014;BME280;40916;51.632;5.552;2023-02-26T02:12:05;1014.9453987710833;;;-1.07167844994132;0
55014;BME280;40916;51.632;5.552;2023-02-26T02:12:54;1014.989923272117;;;-1.0407494085298268;0
55014;BME280;40916;51.632;5.552;2023-02-26T02:13:56;1015.060603727196;;;-1.025289393037358;0
55014;BME280;40916;51.632;5.552;2023-02-26T02:14:55;1014.9097377162233;;;-1.0484805421524506;0
55014;BME280;40916;51.632;5.552;2023-02-26T02:15:54;1015.071366591938;;;-1.025289393037358;0
55014;BME280;40916;51.632;5.552;2023-02-26T02:16:54;1014.989923272117;;;-1.0407494085298268;0
55014;BME280;40916;51.632;5.552;2023-02-26T02:17:54;1015.0509107298651;;;-1.0407494085298268;0
55014;BME280;40916;51.632;5.552;2023-02-26T02:18:55;1015.0663187210249;;;-1.0562124267387318;0
55014;BME280;40916;51.632;5.552;2023-02-26T02:19:58;1015.0888888547988;;;-1.07167844994132;0
55014;BME280;40916;51.632;5.552;2023-02-26T02:20:59;1015.0420108603679;;;-1.094883124095528;0
55014;BME280;40916;51.632;5.552;2023-02-26T02:21:54;1015.0417416879567;;;-1.1180945723183022;0
55014;BME280;40916;51.632;5.552;2023-02-26T02:22:56;1015.1519255836495;;;-1.1026195204480906;0
55014;BME280;40916;51.632;5.552;2023-02-26T02:23:54;1015.0678509992971;;;-1.1335726383142735;0
55014;BME280;40916;51.632;5.552;2023-02-26T02:24:57;1015.065254052992;;;-1.149053720724801;0
55014;BME280;40916;51.632;5.552;2023-02-26T02:26:01;1015.1598081974251;;;-1.1413128023245775;0
55014;BME280;40916;51.632;5.552;2023-02-26T02:26:56;1015.1653449228562;;;-1.172281005130337;0
55014;BME280;40916;51.632;5.552;2023-02-26T02:27:56;1015.1927232646299;;;-1.1800249439563117;0
55014;BME280;40916;51.632;5.552;2023-02-26T02:29:04;1015.159682243553;;;-1.226504459266149;0
55014;BME280;40916;51.632;5.552;2023-02-26T02:30:04;1015.1354989712826;;;-1.2420036883587926;0
55014;BME280;40916;51.632;5.552;2023-02-26T02:30:55;1015.2426346564986;;;-1.2652582186585057;0
55014;BME280;40916;51.632;5.552;2023-02-26T02:31:54;1015.1955554843234;;;-1.2885195798760307;0
55014;BME280;40916;51.632;5.552;2023-02-26T02:32:55;1015.2600951872619;;;-1.2885195798760307;0
55014;BME280;40916;51.632;5.552;2023-02-26T02:33:54;1015.1937007499067;;;-1.3195453675238085;0
55014;BME280;40916;51.632;5.552;2023-02-26T02:34:56;1015.2425268821175;;;-1.3273037162502703;0
55014;BME280;40916;51.632;5.552;2023-02-26T02:35:55;1015.1667051598615;;;-1.3505833314210527;0
55014;BME280;40916;51.632;5.552;2023-02-26T02:36:56;1015.1101725157448;;;-1.3661068852625995;0
55014;BME280;40916;51.632;5.552;2023-02-26T02:37:55;1015.1818709405566;;;-1.3661068852625995;0
55014;BME280;40916;51.632;5.552;2023-02-26T02:38:55;1015.3009834496135;;;-1.3816334901304863;0
55014;BME280;40916;51.632;5.552;2023-02-26T02:39:55;1015.2717075778007;;;-1.4049291231959913;0
55014;BME280;40916;51.632;5.552;2023-02-26T02:40:56;1015.2230792404417;;;-1.436000667606919;0
55014;BME280;40916;51.632;5.552;2023-02-26T02:41:55;1015.3291982228773;;;-1.4437704664256827;0
55014;BME280;40916;51.632;5.552;2023-02-26T02:42:59;1015.2833551792368;;;-1.4593123613662016;0
55014;BME280;40916;51.632;5.552;2023-02-26T02:43:55;1015.2625922216113;;;-1.4748573213260379;0
55014;BME280;40916;51.632;5.552;2023-02-26T02:44:55;1015.219583477778;;;-1.4748573213260379;0
55014;BME280;40916;51.632;5.552;2023-02-26T02:45:56;1015.2052472334539;;;-1.4748573213260379;0
55014;BME280;40916;51.632;5.552;2023-02-26T02:46:55;1015.3235213032622;;;-1.4748573213260379;0
55014;BME280;40916;51.632;5.552;2023-02-26T02:47:56;1015.3464495405385;;;-1.4670844580724811;0
55014;BME280;40916;51.632;5.552;2023-02-26T02:49:57;1015.3464695966078;;;-1.5059564456679553;0
55014;BME280;40916;51.632;5.552;2023-02-26T02:50:56;1015.4145621733178;;;-1.5059564456679553;0
55014;BME280;40916;51.632;5.552;2023-02-26T02:51:57;1015.4145621733178;;;-1.5059564456679553;0
55014;BME280;40916;51.632;5.552;2023-02-26T02:52:56;1015.3794274240925;;;-1.5215106147381476;0
55014;BME280;40916;51.632;5.552;2023-02-26T02:53:56;1015.4123714393684;;;-1.5370678582038835;0
55014;BME280;40916;51.632;5.552;2023-02-26T02:54:57;1015.4410400364452;;;-1.5370678582038835;0
55014;BME280;40916;51.632;5.552;2023-02-26T02:55:56;1015.3749587432198;;;-1.5837580584866302;0
55014;BME280;40916;51.632;5.552;2023-02-26T02:56:57;1015.372021282851;;;-1.5993276230588123;0
55014;BME280;40916;51.632;5.552;2023-02-26T02:57:57;1015.437148611936;;;-1.6149002738006786;0
55014;BME280;40916;51.632;5.552;2023-02-26T02:59:57;1015.4425569440529;;;-1.6616367666768177;0
55014;BME280;40916;51.632;5.552;2023-02-26T03:00:57;1015.4472978749702;;;-1.6928099028110637;0
55014;BME280;40916;51.632;5.552;2023-02-26T03:01:58;1015.5072415480627;;;-1.7161978923663703;0
55014;BME280;40916;51.632;5.552;2023-02-26T03:02:58;1015.5200513825513;;;-1.7239954404603282;0
55014;BME280;40916;51.632;5.552;2023-02-26T03:03:58;1015.503202023438;;;-1.7551933986467425;0
55014;BME280;40916;51.632;5.552;2023-02-26T03:04:57;1015.5610226220969;;;-1.7707970413964418;0
55014;BME280;40916;51.632;5.552;2023-02-26T03:05:57;1015.5077978952652;;;-1.7864037964313724;0
55014;BME280;40916;51.632;5.552;2023-02-26T03:06:57;1015.5134163829068;;;-1.794208341802186;0
55014;BME280;40916;51.632;5.552;2023-02-26T03:08:00;1015.4662562170292;;;-1.8332427591471117;0
55014;BME280;40916;51.632;5.552;2023-02-26T03:08:57;1015.5875548132078;;;-1.8176266529143064;0
55014;BME280;40916;51.632;5.552;2023-02-26T03:09:57;1015.5546709162203;;;-1.8566727727235843;0
55014;BME280;40916;51.632;5.552;2023-02-26T03:10:57;1015.5499477412926;;;-1.8801098185711425;0
55014;BME280;40916;51.632;5.552;2023-02-26T03:11:57;1015.6112378119952;;;-1.8957384266243231;0
55014;BME280;40916;51.632;5.552;2023-02-26T03:12:57;1015.4727792617737;;;-1.9426430492021858;0
55014;BME280;40916;51.632;5.552;2023-02-26T03:13:58;1015.6036483014419;;;-1.950463230898336;0
55014;BME280;40916;51.632;5.552;2023-02-26T03:14:58;1015.5483373919634;;;-1.9582841975704142;0
55014;BME280;40916;51.632;5.552;2023-02-26T03:16:00;1015.5825299170817;;;-1.9661059495204753;0
55014;BME280;40916;51.632;5.552;2023-02-26T03:17:02;1015.6560996269484;;;-1.9739284870507205;0
55014;BME280;40916;51.632;5.552;2023-02-26T03:17:59;1015.6313828352903;;;-1.9895759200613838;0
55014;BME280;40916;51.632;5.552;2023-02-26T03:18:59;1015.5994962224721;;;-2.0052264990231627;0
55014;BME280;40916;51.632;5.552;2023-02-26T03:20:02;1015.6821519000009;;;-2.0208802263593135;0
55014;BME280;40916;51.632;5.552;2023-02-26T03:21:05;1015.7283715967636;;;-2.0052264990231627;0
55014;BME280;40916;51.632;5.552;2023-02-26T03:22:00;1015.6964708930714;;;-2.0208802263593135;0
55014;BME280;40916;51.632;5.552;2023-02-26T03:23:01;1015.69677720789;;;-2.0365371044955722;0
55014;BME280;40916;51.632;5.552;2023-02-26T03:23:59;1015.6791741760669;;;-2.0521971358601725;0
55014;BME280;40916;51.632;5.552;2023-02-26T03:25:00;1015.7078101780611;;;-2.0521971358601725;0
55014;BME280;40916;51.632;5.552;2023-02-26T03:25:59;1015.6937749151248;;;-2.0678603228838384;0
55014;BME280;40916;51.632;5.552;2023-02-26T03:27:00;1015.6582532783144;;;-2.083526667999795;0
55014;BME280;40916;51.632;5.552;2023-02-26T03:28:00;1015.7601291670986;;;-2.075693100528106;0
55014;BME280;40916;51.632;5.552;2023-02-26T03:29:01;1015.7978441490715;;;-2.083526667999795;0
55014;BME280;40916;51.632;5.552;2023-02-26T03:30:00;1015.7727893647603;;;-2.083526667999795;0
55014;BME280;40916;51.632;5.552;2023-02-26T03:31:01;1015.7694665123435;;;-2.099196173643776;0
55014;BME280;40916;51.632;5.552;2023-02-26T03:32:02;1015.7871063836898;;;-2.083526667999795;0
55014;BME280;40916;51.632;5.552;2023-02-26T03:33:02;1015.7835271287883;;;-2.083526667999795;0
55014;BME280;40916;51.632;5.552;2023-02-26T03:34:01;1015.8457612533085;;;-2.0600283347626025;0
55014;BME280;40916;51.632;5.552;2023-02-26T03:35:01;1015.8529201395294;;;-2.0600283347626025;0
55014;BME280;40916;51.632;5.552;2023-02-26T03:36:02;1015.8526369947535;;;-2.044366725872468;0
55014;BME280;40916;51.632;5.552;2023-02-26T03:37:01;1015.904096495514;;;-2.0208802263593135;0
55014;BME280;40916;51.632;5.552;2023-02-26T03:38:02;1015.9291547835533;;;-2.0208802263593135;0
55014;BME280;40916;51.632;5.552;2023-02-26T03:39:02;1015.9454140129696;;;-2.0287082714257245;0
55014;BME280;40916;51.632;5.552;2023-02-26T03:40:02;1016.0150689559572;;;-2.0208802263593135;0
55014;BME280;40916;51.632;5.552;2023-02-26T03:41:02;1015.9401919306825;;;-2.0365371044955722;0
55014;BME280;40916;51.632;5.552;2023-02-26T03:42:01;1015.8047356299481;;;-2.0678603228838384;0
55014;BME280;40916;51.632;5.552;2023-02-26T03:43:03;1015.9121170701188;;;-2.0678603228838384;0
55014;BME280;40916;51.632;5.552;2023-02-26T03:44:02;1015.9729665979602;;;-2.0678603228838384;0
55014;BME280;40916;51.632;5.552;2023-02-26T03:45:02;1016.0409749323725;;;-2.0678603228838384;0
55014;BME280;40916;51.632;5.552;2023-02-26T03:46:02;1016.0536334729402;;;-2.075693100528106;0
55014;BME280;40916;51.632;5.552;2023-02-26T03:47:02;1016.0021102166758;;;-2.099196173643776;0
55014;BME280;40916;51.632;5.552;2023-02-26T03:48:03;1015.9863551616168;;;-2.1227063634341086;0
55014;BME280;40916;51.632;5.552;2023-02-26T03:49:03;1016.0293025794052;;;-2.1227063634341086;0
55014;BME280;40916;51.632;5.552;2023-02-26T03:50:03;1016.0185657234352;;;-2.1227063634341086;0
55014;BME280;40916;51.632;5.552;2023-02-26T03:51:03;1016.0383601372562;;;-2.1305446762712457;0
55014;BME280;40916;51.632;5.552;2023-02-26T03:52:02;1016.0598334813308;;;-2.1305446762712457;0
55014;BME280;40916;51.632;5.552;2023-02-26T03:53:03;1015.9848900913088;;;-2.1462236781387354;0
55014;BME280;40916;51.632;5.552;2023-02-26T03:54:03;1015.9724668198929;;;-2.154064367780528;0
55014;BME280;40916;51.632;5.552;2023-02-26T03:55:04;1016.0493078693229;;;-2.1462236781387354;0
55014;BME280;40916;51.632;5.552;2023-02-26T03:56:03;1016.0423497446351;;;-2.1619058503022437;0
55014;BME280;40916;51.632;5.552;2023-02-26T03:57:03;1016.0604298341916;;;-2.1775911952100664;0
55014;BME280;40916;51.632;5.552;2023-02-26T03:58:03;1016.0604298341916;;;-2.1775911952100664;0
55014;BME280;40916;51.632;5.552;2023-02-26T03:59:03;1015.9999372661589;;;-2.2089714130644076;0
55014;BME280;40916;51.632;5.552;2023-02-26T04:00:03;1016.047994209368;;;-2.185435058208874;0
55014;BME280;40916;51.632;5.552;2023-02-26T04:01:03;1015.9943173857404;;;-2.185435058208874;0
55014;BME280;40916;51.632;5.552;2023-02-26T04:02:04;1015.9994060488447;;;-2.1619058503022437;0
55014;BME280;40916;51.632;5.552;2023-02-26T04:03:05;1016.0012913224612;;;-2.169748126009999;0
55014;BME280;40916;51.632;5.552;2023-02-26T04:04:05;1016.070978884185;;;-2.1619058503022437;0
55014;BME280;40916;51.632;5.552;2023-02-26T04:05:05;1016.0462912211232;;;-2.1932797153130075;0
55014;BME280;40916;51.632;5.552;2023-02-26T04:06:03;1016.0819009459661;;;-2.1775911952100664;0
55014;BME280;40916;51.632;5.552;2023-02-26T04:07:03;1016.09093568654;;;-2.185435058208874;0
55014;BME280;40916;51.632;5.552;2023-02-26T04:08:04;1016.1142807189356;;;-2.1932797153130075;0
55014;BME280;40916;51.632;5.552;2023-02-26T04:09:04;1016.1607998724746;;;-2.1932797153130075;0
55014;BME280;40916;51.632;5.552;2023-02-26T04:10:04;1016.1643782696901;;;-2.1932797153130075;0
55014;BME280;40916;51.632;5.552;2023-02-26T04:11:05;1016.1625048512485;;;-2.185435058208874;0
55014;BME280;40916;51.632;5.552;2023-02-26T04:12:04;1016.1947109900848;;;-2.185435058208874;0
55014;BME280;40916;51.632;5.552;2023-02-26T04:13:04;1016.1947109900848;;;-2.185435058208874;0
55014;BME280;40916;51.632;5.552;2023-02-26T04:14:04;1016.2037406465035;;;-2.1932797153130075;0